Etusivu
METAR-TAF:

METAR-TAF

Lentoasemat :

Chengdu Shuangliun kansainvälinen lentoasema

Chengdu, Kiina

Leveyspiiri: 30-40N, Pituuspiiri: 104-01E, korkeus merenpinnasta: 508 m

Tämänhetkinen sää

Tämä raportti tehtiin 1 tunti ja 0 minuuttia sitten, kello 10.00 UTC
Tuuli 6 kn lännestä/luoteesta, vaihdellen lännen ja pohjoisen/luoteen välillä
Lämpötila 18°C
Kosteus 56%
Ilmanpaine 1017 hPa
Näkyvyys: 8000 m
Muutamia pilviä 4000 ft:n korkeudessa

METAR: ZUUU 071000Z 30003MPS 260V340 8000 FEW040 18/09 Q1017 NOSIG

Aika: 19:00 (11:00 UTC)

Sääennuste

Tämä raportti tehtiin 8 tuntia ja 53 minuuttia sitten, kello 02.07 UTC
Ennuste voimassa 07. päivästä klo 06 UTC - 08. päivään klo 06 UTC
Tuuli 6 kn etelästä/lounaasta
Näkyvyys: 5000 m
Hajanaisia pilviä 5000 ft:n korkeudessa
utua

TAF: ZUUU 070207Z 0706/0806 20003MPS 5000 BR SCT050 TX22/0707Z TN11/0723Z

Säähavainnot ja -ennusteet yli 4000 lentoasemalta (METAR- ja TAF-raportit).

Käytössä olevat sääasemat on merkitty karttaan keltaisilla ja punaisilla pisteillä.

Aseta hiiri pisteen päälle nähdäksesi sääaseman nimen.

Klikkaa sitten nähdäksesi säähavainnot ja -ennusteet.

Kartan vaihtaminen: klikkaa mustalla rastilla varustettuja vihreitä pisteitä, niin voit zoomata sisään; viivalla varustettua vihreää pistettä, niin voit zoomata ulos tai vihreitä nuolia, niin pääset viereisille kartoille.


METAR-TAF: